Terminal Aerodrome Forecast
Issued by NWS

Current Version | Previous Version | Text Only | Print | Product List | Glossary On
Versions: 1 2 3 4 5 6 7 8 9 10 11 12 13 14 15 16 17 18
000
FTUS42 KMHX 301700
TAFPGV
TAF
KPGV 301738Z 3018/0118 02003KT P6SM SCT030
     FM010700 00000KT 3SM BR SCT005
      TEMPO 0108/0112 1SM BR BKN003
     FM011300 03004KT P6SM SCT025
      AMD LTD TO CLD VIS AND WIND=

USA.gov is the U.S. government's official web portal to all federal, state and local government web resources and services.